sensor_id;sensor_type;location;lat;lon;timestamp;P1;durP1;ratioP1;P2;durP2;ratioP2
72771;SDS011;60894;42.544;1.516;2023-07-31T00:01:19;10.27;;;4.57;;
72771;SDS011;60894;42.544;1.516;2023-07-31T00:03:46;9.30;;;4.38;;
72771;SDS011;60894;42.544;1.516;2023-07-31T00:06:15;8.43;;;4.95;;
72771;SDS011;60894;42.544;1.516;2023-07-31T00:08:42;10.25;;;4.85;;
72771;SDS011;60894;42.544;1.516;2023-07-31T00:11:09;8.63;;;4.82;;
72771;SDS011;60894;42.544;1.516;2023-07-31T00:13:36;9.40;;;4.77;;
72771;SDS011;60894;42.544;1.516;2023-07-31T00:16:03;9.18;;;4.90;;
72771;SDS011;60894;42.544;1.516;2023-07-31T00:18:30;10.63;;;5.10;;
72771;SDS011;60894;42.544;1.516;2023-07-31T00:20:57;8.50;;;4.65;;
72771;SDS011;60894;42.544;1.516;2023-07-31T00:23:25;8.52;;;4.13;;
72771;SDS011;60894;42.544;1.516;2023-07-31T00:25:52;8.43;;;4.60;;
72771;SDS011;60894;42.544;1.516;2023-07-31T00:28:19;9.18;;;5.13;;
72771;SDS011;60894;42.544;1.516;2023-07-31T00:30:46;9.48;;;4.80;;
72771;SDS011;60894;42.544;1.516;2023-07-31T00:33:13;9.43;;;5.20;;
72771;SDS011;60894;42.544;1.516;2023-07-31T00:35:40;8.88;;;4.75;;
72771;SDS011;60894;42.544;1.516;2023-07-31T00:38:07;10.17;;;5.30;;
72771;SDS011;60894;42.544;1.516;2023-07-31T00:40:36;10.05;;;5.38;;
72771;SDS011;60894;42.544;1.516;2023-07-31T00:43:03;9.82;;;5.30;;
72771;SDS011;60894;42.544;1.516;2023-07-31T00:45:30;8.32;;;4.55;;
72771;SDS011;60894;42.544;1.516;2023-07-31T00:47:59;9.90;;;5.15;;
72771;SDS011;60894;42.544;1.516;2023-07-31T00:50:26;8.50;;;4.77;;
72771;SDS011;60894;42.544;1.516;2023-07-31T00:52:54;9.32;;;4.47;;
72771;SDS011;60894;42.544;1.516;2023-07-31T00:55:21;9.98;;;5.18;;
72771;SDS011;60894;42.544;1.516;2023-07-31T00:57:50;9.32;;;4.85;;
72771;SDS011;60894;42.544;1.516;2023-07-31T01:00:20;10.23;;;4.50;;
72771;SDS011;60894;42.544;1.516;2023-07-31T01:02:48;8.70;;;4.90;;
72771;SDS011;60894;42.544;1.516;2023-07-31T01:05:17;10.98;;;4.82;;
72771;SDS011;60894;42.544;1.516;2023-07-31T01:07:52;9.00;;;5.20;;
72771;SDS011;60894;42.544;1.516;2023-07-31T01:10:24;9.60;;;4.93;;
72771;SDS011;60894;42.544;1.516;2023-07-31T01:12:58;10.13;;;4.55;;
72771;SDS011;60894;42.544;1.516;2023-07-31T01:15:25;8.73;;;4.57;;
72771;SDS011;60894;42.544;1.516;2023-07-31T01:17:52;9.68;;;5.22;;
72771;SDS011;60894;42.544;1.516;2023-07-31T01:20:20;8.68;;;4.85;;
72771;SDS011;60894;42.544;1.516;2023-07-31T01:22:54;9.23;;;4.80;;
72771;SDS011;60894;42.544;1.516;2023-07-31T01:28:40;10.03;;;4.77;;
72771;SDS011;60894;42.544;1.516;2023-07-31T01:31:14;10.05;;;5.38;;
72771;SDS011;60894;42.544;1.516;2023-07-31T01:33:45;8.63;;;4.70;;
72771;SDS011;60894;42.544;1.516;2023-07-31T01:36:12;8.73;;;4.95;;
72771;SDS011;60894;42.544;1.516;2023-07-31T01:38:40;10.32;;;5.50;;
72771;SDS011;60894;42.544;1.516;2023-07-31T01:41:09;9.03;;;5.40;;
72771;SDS011;60894;42.544;1.516;2023-07-31T01:43:36;9.93;;;5.15;;
72771;SDS011;60894;42.544;1.516;2023-07-31T01:46:03;11.82;;;5.20;;
72771;SDS011;60894;42.544;1.516;2023-07-31T01:48:30;10.07;;;5.57;;
72771;SDS011;60894;42.544;1.516;2023-07-31T01:51:00;9.27;;;5.32;;
72771;SDS011;60894;42.544;1.516;2023-07-31T01:53:28;10.10;;;5.33;;
72771;SDS011;60894;42.544;1.516;2023-07-31T01:55:55;10.32;;;5.85;;
72771;SDS011;60894;42.544;1.516;2023-07-31T01:58:23;9.85;;;5.60;;
72771;SDS011;60894;42.544;1.516;2023-07-31T02:00:51;10.68;;;5.53;;
72771;SDS011;60894;42.544;1.516;2023-07-31T02:03:18;10.13;;;5.30;;
72771;SDS011;60894;42.544;1.516;2023-07-31T02:05:45;10.50;;;5.17;;
72771;SDS011;60894;42.544;1.516;2023-07-31T02:08:12;9.52;;;5.60;;
72771;SDS011;60894;42.544;1.516;2023-07-31T02:10:39;9.70;;;5.63;;
72771;SDS011;60894;42.544;1.516;2023-07-31T02:13:06;9.75;;;5.80;;
72771;SDS011;60894;42.544;1.516;2023-07-31T02:15:34;10.05;;;5.45;;
72771;SDS011;60894;42.544;1.516;2023-07-31T02:18:02;8.60;;;4.90;;
72771;SDS011;60894;42.544;1.516;2023-07-31T02:20:29;9.88;;;5.30;;
72771;SDS011;60894;42.544;1.516;2023-07-31T02:22:56;9.50;;;5.30;;
72771;SDS011;60894;42.544;1.516;2023-07-31T02:25:23;9.65;;;5.30;;
72771;SDS011;60894;42.544;1.516;2023-07-31T02:27:50;8.77;;;5.25;;
72771;SDS011;60894;42.544;1.516;2023-07-31T02:30:17;9.13;;;5.27;;
72771;SDS011;60894;42.544;1.516;2023-07-31T02:32:45;13.02;;;5.63;;
72771;SDS011;60894;42.544;1.516;2023-07-31T02:35:13;10.93;;;5.60;;
72771;SDS011;60894;42.544;1.516;2023-07-31T02:37:40;9.13;;;5.38;;
72771;SDS011;60894;42.544;1.516;2023-07-31T02:40:08;9.23;;;5.30;;
72771;SDS011;60894;42.544;1.516;2023-07-31T02:42:35;10.17;;;5.43;;
72771;SDS011;60894;42.544;1.516;2023-07-31T02:45:02;10.30;;;5.55;;
72771;SDS011;60894;42.544;1.516;2023-07-31T02:47:30;10.75;;;5.68;;
72771;SDS011;60894;42.544;1.516;2023-07-31T02:49:58;10.07;;;4.95;;
72771;SDS011;60894;42.544;1.516;2023-07-31T02:52:25;9.75;;;5.45;;
72771;SDS011;60894;42.544;1.516;2023-07-31T02:54:52;8.87;;;5.23;;
72771;SDS011;60894;42.544;1.516;2023-07-31T02:57:21;9.00;;;5.13;;
72771;SDS011;60894;42.544;1.516;2023-07-31T02:59:48;10.75;;;5.60;;
72771;SDS011;60894;42.544;1.516;2023-07-31T03:02:15;10.20;;;5.53;;
72771;SDS011;60894;42.544;1.516;2023-07-31T03:04:42;10.75;;;5.50;;
72771;SDS011;60894;42.544;1.516;2023-07-31T03:07:11;9.93;;;5.87;;
72771;SDS011;60894;42.544;1.516;2023-07-31T03:09:38;10.05;;;5.75;;
72771;SDS011;60894;42.544;1.516;2023-07-31T03:12:05;9.77;;;5.78;;
72771;SDS011;60894;42.544;1.516;2023-07-31T03:14:33;9.40;;;5.55;;
72771;SDS011;60894;42.544;1.516;2023-07-31T03:17:00;9.73;;;4.90;;
72771;SDS011;60894;42.544;1.516;2023-07-31T03:19:27;8.60;;;5.00;;
72771;SDS011;60894;42.544;1.516;2023-07-31T03:21:57;9.70;;;5.47;;
72771;SDS011;60894;42.544;1.516;2023-07-31T03:24:25;9.60;;;5.50;;
72771;SDS011;60894;42.544;1.516;2023-07-31T03:26:52;9.68;;;5.18;;
72771;SDS011;60894;42.544;1.516;2023-07-31T03:29:19;9.55;;;5.30;;
72771;SDS011;60894;42.544;1.516;2023-07-31T03:31:46;9.00;;;5.20;;
72771;SDS011;60894;42.544;1.516;2023-07-31T03:34:13;8.85;;;5.28;;
72771;SDS011;60894;42.544;1.516;2023-07-31T03:36:40;9.32;;;5.55;;
72771;SDS011;60894;42.544;1.516;2023-07-31T03:39:07;8.52;;;4.88;;
72771;SDS011;60894;42.544;1.516;2023-07-31T03:41:36;9.07;;;5.28;;
72771;SDS011;60894;42.544;1.516;2023-07-31T03:44:02;8.87;;;4.93;;
72771;SDS011;60894;42.544;1.516;2023-07-31T03:46:29;9.98;;;5.15;;
72771;SDS011;60894;42.544;1.516;2023-07-31T03:48:56;9.90;;;5.32;;
72771;SDS011;60894;42.544;1.516;2023-07-31T03:51:23;8.82;;;5.03;;
72771;SDS011;60894;42.544;1.516;2023-07-31T03:53:50;9.98;;;4.68;;
72771;SDS011;60894;42.544;1.516;2023-07-31T03:56:17;9.77;;;5.60;;
72771;SDS011;60894;42.544;1.516;2023-07-31T03:58:46;9.48;;;5.45;;
72771;SDS011;60894;42.544;1.516;2023-07-31T04:01:13;9.60;;;4.97;;
72771;SDS011;60894;42.544;1.516;2023-07-31T04:03:40;8.30;;;4.80;;
72771;SDS011;60894;42.544;1.516;2023-07-31T04:06:07;9.15;;;4.72;;
72771;SDS011;60894;42.544;1.516;2023-07-31T04:08:34;8.40;;;5.17;;
72771;SDS011;60894;42.544;1.516;2023-07-31T04:11:01;8.55;;;4.97;;
72771;SDS011;60894;42.544;1.516;2023-07-31T04:13:29;9.07;;;5.32;;
72771;SDS011;60894;42.544;1.516;2023-07-31T04:15:57;9.50;;;5.65;;
72771;SDS011;60894;42.544;1.516;2023-07-31T04:18:24;8.75;;;5.03;;
72771;SDS011;60894;42.544;1.516;2023-07-31T04:20:51;9.47;;;4.90;;
72771;SDS011;60894;42.544;1.516;2023-07-31T04:23:18;9.07;;;4.80;;
72771;SDS011;60894;42.544;1.516;2023-07-31T04:25:45;8.00;;;4.60;;
72771;SDS011;60894;42.544;1.516;2023-07-31T04:28:12;9.07;;;4.72;;
72771;SDS011;60894;42.544;1.516;2023-07-31T04:30:39;8.63;;;4.93;;
72771;SDS011;60894;42.544;1.516;2023-07-31T04:33:08;10.23;;;5.90;;
72771;SDS011;60894;42.544;1.516;2023-07-31T04:35:35;9.80;;;5.30;;
72771;SDS011;60894;42.544;1.516;2023-07-31T04:38:02;8.95;;;4.88;;
72771;SDS011;60894;42.544;1.516;2023-07-31T04:40:29;10.57;;;4.80;;
72771;SDS011;60894;42.544;1.516;2023-07-31T04:42:56;9.55;;;5.10;;
72771;SDS011;60894;42.544;1.516;2023-07-31T04:45:23;10.47;;;5.10;;
72771;SDS011;60894;42.544;1.516;2023-07-31T04:47:50;9.43;;;5.30;;
72771;SDS011;60894;42.544;1.516;2023-07-31T04:50:19;9.30;;;5.13;;
72771;SDS011;60894;42.544;1.516;2023-07-31T04:52:46;10.18;;;5.70;;
72771;SDS011;60894;42.544;1.516;2023-07-31T04:55:13;8.93;;;4.80;;
72771;SDS011;60894;42.544;1.516;2023-07-31T04:57:40;10.93;;;4.67;;
72771;SDS011;60894;42.544;1.516;2023-07-31T05:00:07;10.50;;;4.88;;
72771;SDS011;60894;42.544;1.516;2023-07-31T05:02:35;9.75;;;5.20;;
72771;SDS011;60894;42.544;1.516;2023-07-31T05:05:02;8.90;;;5.10;;
72771;SDS011;60894;42.544;1.516;2023-07-31T05:07:31;9.32;;;5.53;;
72771;SDS011;60894;42.544;1.516;2023-07-31T05:09:58;9.60;;;5.20;;
72771;SDS011;60894;42.544;1.516;2023-07-31T05:12:25;10.20;;;5.30;;
72771;SDS011;60894;42.544;1.516;2023-07-31T05:14:52;9.52;;;5.43;;
72771;SDS011;60894;42.544;1.516;2023-07-31T05:17:19;9.25;;;5.13;;
72771;SDS011;60894;42.544;1.516;2023-07-31T05:19:46;10.57;;;5.03;;
72771;SDS011;60894;42.544;1.516;2023-07-31T05:22:13;13.47;;;8.70;;
72771;SDS011;60894;42.544;1.516;2023-07-31T05:24:43;12.20;;;7.30;;
72771;SDS011;60894;42.544;1.516;2023-07-31T05:27:10;12.55;;;6.78;;
72771;SDS011;60894;42.544;1.516;2023-07-31T05:29:38;10.45;;;5.07;;
72771;SDS011;60894;42.544;1.516;2023-07-31T05:32:07;9.73;;;4.93;;
72771;SDS011;60894;42.544;1.516;2023-07-31T05:34:34;8.93;;;5.20;;
72771;SDS011;60894;42.544;1.516;2023-07-31T05:37:01;12.43;;;5.80;;
72771;SDS011;60894;42.544;1.516;2023-07-31T05:39:28;10.07;;;5.50;;
72771;SDS011;60894;42.544;1.516;2023-07-31T05:41:56;9.32;;;5.28;;
72771;SDS011;60894;42.544;1.516;2023-07-31T05:44:23;9.55;;;5.20;;
72771;SDS011;60894;42.544;1.516;2023-07-31T05:46:50;9.77;;;5.43;;
72771;SDS011;60894;42.544;1.516;2023-07-31T05:49:17;9.90;;;5.50;;
72771;SDS011;60894;42.544;1.516;2023-07-31T05:51:44;9.95;;;4.38;;
72771;SDS011;60894;42.544;1.516;2023-07-31T05:54:11;9.35;;;5.28;;
72771;SDS011;60894;42.544;1.516;2023-07-31T05:56:39;8.68;;;5.40;;
72771;SDS011;60894;42.544;1.516;2023-07-31T05:59:08;8.17;;;4.23;;
72771;SDS011;60894;42.544;1.516;2023-07-31T06:01:35;9.15;;;4.80;;
72771;SDS011;60894;42.544;1.516;2023-07-31T06:04:02;9.80;;;4.97;;
72771;SDS011;60894;42.544;1.516;2023-07-31T06:06:30;8.48;;;4.65;;
72771;SDS011;60894;42.544;1.516;2023-07-31T06:08:57;8.95;;;4.90;;
72771;SDS011;60894;42.544;1.516;2023-07-31T06:11:24;8.33;;;4.57;;
72771;SDS011;60894;42.544;1.516;2023-07-31T06:13:51;9.98;;;4.93;;
72771;SDS011;60894;42.544;1.516;2023-07-31T06:16:19;8.52;;;4.90;;
72771;SDS011;60894;42.544;1.516;2023-07-31T06:18:46;9.15;;;4.95;;
72771;SDS011;60894;42.544;1.516;2023-07-31T06:21:13;11.50;;;5.25;;
72771;SDS011;60894;42.544;1.516;2023-07-31T06:23:40;10.63;;;5.60;;
72771;SDS011;60894;42.544;1.516;2023-07-31T06:26:08;10.38;;;5.32;;
72771;SDS011;60894;42.544;1.516;2023-07-31T06:28:35;11.23;;;5.05;;
72771;SDS011;60894;42.544;1.516;2023-07-31T06:31:02;12.55;;;5.30;;
72771;SDS011;60894;42.544;1.516;2023-07-31T06:33:30;17.33;;;6.30;;
72771;SDS011;60894;42.544;1.516;2023-07-31T06:35:57;12.30;;;5.27;;
72771;SDS011;60894;42.544;1.516;2023-07-31T06:38:25;11.18;;;5.10;;
72771;SDS011;60894;42.544;1.516;2023-07-31T06:40:52;9.63;;;4.78;;
72771;SDS011;60894;42.544;1.516;2023-07-31T06:43:20;11.50;;;5.20;;
72771;SDS011;60894;42.544;1.516;2023-07-31T06:45:47;13.77;;;5.97;;
72771;SDS011;60894;42.544;1.516;2023-07-31T06:48:16;12.13;;;5.50;;
72771;SDS011;60894;42.544;1.516;2023-07-31T06:50:45;14.63;;;5.18;;
72771;SDS011;60894;42.544;1.516;2023-07-31T06:53:12;10.13;;;4.90;;
72771;SDS011;60894;42.544;1.516;2023-07-31T06:55:39;8.85;;;4.35;;
72771;SDS011;60894;42.544;1.516;2023-07-31T06:58:06;9.32;;;4.70;;
72771;SDS011;60894;42.544;1.516;2023-07-31T07:00:33;15.93;;;5.37;;
72771;SDS011;60894;42.544;1.516;2023-07-31T07:03:00;16.77;;;6.05;;
72771;SDS011;60894;42.544;1.516;2023-07-31T07:05:27;11.07;;;4.63;;
72771;SDS011;60894;42.544;1.516;2023-07-31T07:07:55;16.05;;;5.20;;
72771;SDS011;60894;42.544;1.516;2023-07-31T07:10:22;10.63;;;4.93;;
72771;SDS011;60894;42.544;1.516;2023-07-31T07:12:49;10.77;;;4.63;;
72771;SDS011;60894;42.544;1.516;2023-07-31T07:15:16;9.43;;;4.40;;
72771;SDS011;60894;42.544;1.516;2023-07-31T07:17:44;7.97;;;3.83;;
72771;SDS011;60894;42.544;1.516;2023-07-31T07:20:11;10.25;;;3.65;;
72771;SDS011;60894;42.544;1.516;2023-07-31T07:22:38;7.80;;;3.83;;
72771;SDS011;60894;42.544;1.516;2023-07-31T07:25:09;9.00;;;4.00;;
72771;SDS011;60894;42.544;1.516;2023-07-31T07:27:36;7.90;;;3.90;;
72771;SDS011;60894;42.544;1.516;2023-07-31T07:30:04;9.63;;;4.22;;
72771;SDS011;60894;42.544;1.516;2023-07-31T07:32:31;8.88;;;4.15;;
72771;SDS011;60894;42.544;1.516;2023-07-31T07:34:58;7.82;;;4.00;;
72771;SDS011;60894;42.544;1.516;2023-07-31T07:37:26;10.03;;;4.10;;
72771;SDS011;60894;42.544;1.516;2023-07-31T07:39:53;8.23;;;4.07;;
72771;SDS011;60894;42.544;1.516;2023-07-31T07:42:21;8.30;;;4.05;;
72771;SDS011;60894;42.544;1.516;2023-07-31T07:44:48;7.90;;;3.65;;
72771;SDS011;60894;42.544;1.516;2023-07-31T07:47:15;9.43;;;4.10;;
72771;SDS011;60894;42.544;1.516;2023-07-31T07:49:43;11.03;;;4.37;;
72771;SDS011;60894;42.544;1.516;2023-07-31T07:52:10;8.45;;;3.85;;
72771;SDS011;60894;42.544;1.516;2023-07-31T07:54:37;11.45;;;4.30;;
72771;SDS011;60894;42.544;1.516;2023-07-31T07:57:04;11.65;;;4.32;;
72771;SDS011;60894;42.544;1.516;2023-07-31T07:59:32;20.75;;;4.88;;
72771;SDS011;60894;42.544;1.516;2023-07-31T08:01:59;17.47;;;5.93;;
72771;SDS011;60894;42.544;1.516;2023-07-31T08:04:26;12.43;;;4.80;;
72771;SDS011;60894;42.544;1.516;2023-07-31T08:06:54;9.82;;;5.20;;
72771;SDS011;60894;42.544;1.516;2023-07-31T08:09:21;8.02;;;4.10;;
72771;SDS011;60894;42.544;1.516;2023-07-31T08:11:48;15.20;;;5.30;;
72771;SDS011;60894;42.544;1.516;2023-07-31T08:14:15;11.77;;;5.03;;
72771;SDS011;60894;42.544;1.516;2023-07-31T08:16:43;8.93;;;4.20;;
72771;SDS011;60894;42.544;1.516;2023-07-31T08:19:11;8.45;;;4.28;;
72771;SDS011;60894;42.544;1.516;2023-07-31T08:21:38;12.73;;;5.10;;
72771;SDS011;60894;42.544;1.516;2023-07-31T08:24:05;23.95;;;5.47;;
72771;SDS011;60894;42.544;1.516;2023-07-31T08:26:33;17.63;;;5.37;;
72771;SDS011;60894;42.544;1.516;2023-07-31T08:29:00;14.20;;;4.45;;
72771;SDS011;60894;42.544;1.516;2023-07-31T08:31:27;19.40;;;6.05;;
72771;SDS011;60894;42.544;1.516;2023-07-31T08:33:55;11.25;;;4.50;;
72771;SDS011;60894;42.544;1.516;2023-07-31T08:36:23;15.98;;;5.57;;
72771;SDS011;60894;42.544;1.516;2023-07-31T08:38:50;8.10;;;3.70;;
72771;SDS011;60894;42.544;1.516;2023-07-31T08:41:17;6.80;;;3.55;;
72771;SDS011;60894;42.544;1.516;2023-07-31T08:43:44;7.45;;;3.30;;
72771;SDS011;60894;42.544;1.516;2023-07-31T08:46:12;6.20;;;3.00;;
72771;SDS011;60894;42.544;1.516;2023-07-31T08:48:41;12.52;;;4.72;;
72771;SDS011;60894;42.544;1.516;2023-07-31T08:51:10;22.13;;;11.63;;
72771;SDS011;60894;42.544;1.516;2023-07-31T08:53:39;5.95;;;3.22;;
72771;SDS011;60894;42.544;1.516;2023-07-31T08:56:06;10.30;;;4.28;;
72771;SDS011;60894;42.544;1.516;2023-07-31T08:58:33;7.38;;;3.80;;
72771;SDS011;60894;42.544;1.516;2023-07-31T09:01:03;8.02;;;3.60;;
72771;SDS011;60894;42.544;1.516;2023-07-31T09:03:32;8.53;;;3.70;;
72771;SDS011;60894;42.544;1.516;2023-07-31T09:06:00;7.32;;;3.40;;
72771;SDS011;60894;42.544;1.516;2023-07-31T09:08:32;9.25;;;4.50;;
72771;SDS011;60894;42.544;1.516;2023-07-31T09:11:00;7.43;;;2.90;;
72771;SDS011;60894;42.544;1.516;2023-07-31T09:13:29;7.57;;;3.00;;
72771;SDS011;60894;42.544;1.516;2023-07-31T09:15:57;6.53;;;3.07;;
72771;SDS011;60894;42.544;1.516;2023-07-31T09:18:24;6.50;;;2.78;;
72771;SDS011;60894;42.544;1.516;2023-07-31T09:21:01;5.60;;;2.70;;
72771;SDS011;60894;42.544;1.516;2023-07-31T09:23:41;7.25;;;3.10;;
72771;SDS011;60894;42.544;1.516;2023-07-31T09:26:08;6.90;;;3.38;;
72771;SDS011;60894;42.544;1.516;2023-07-31T09:28:36;8.10;;;3.00;;
72771;SDS011;60894;42.544;1.516;2023-07-31T09:31:03;14.75;;;3.67;;
72771;SDS011;60894;42.544;1.516;2023-07-31T09:33:30;11.73;;;3.40;;
72771;SDS011;60894;42.544;1.516;2023-07-31T09:35:58;7.78;;;3.25;;
72771;SDS011;60894;42.544;1.516;2023-07-31T09:38:26;6.38;;;2.90;;
72771;SDS011;60894;42.544;1.516;2023-07-31T09:40:55;6.87;;;3.27;;
72771;SDS011;60894;42.544;1.516;2023-07-31T09:43:25;5.88;;;2.90;;
72771;SDS011;60894;42.544;1.516;2023-07-31T09:45:54;6.78;;;2.75;;
72771;SDS011;60894;42.544;1.516;2023-07-31T09:48:23;12.80;;;2.92;;
72771;SDS011;60894;42.544;1.516;2023-07-31T09:50:53;24.13;;;5.72;;
72771;SDS011;60894;42.544;1.516;2023-07-31T09:53:21;10.47;;;4.23;;
72771;SDS011;60894;42.544;1.516;2023-07-31T09:55:57;10.27;;;2.80;;
72771;SDS011;60894;42.544;1.516;2023-07-31T09:58:25;6.88;;;2.90;;
72771;SDS011;60894;42.544;1.516;2023-07-31T10:00:55;8.15;;;2.85;;
72771;SDS011;60894;42.544;1.516;2023-07-31T10:03:24;6.97;;;2.78;;
72771;SDS011;60894;42.544;1.516;2023-07-31T10:05:53;14.53;;;3.47;;
72771;SDS011;60894;42.544;1.516;2023-07-31T10:08:23;7.90;;;2.88;;
72771;SDS011;60894;42.544;1.516;2023-07-31T10:10:57;9.48;;;3.25;;
72771;SDS011;60894;42.544;1.516;2023-07-31T10:13:25;8.48;;;3.17;;
72771;SDS011;60894;42.544;1.516;2023-07-31T10:15:54;7.65;;;3.00;;
72771;SDS011;60894;42.544;1.516;2023-07-31T10:18:26;14.20;;;3.50;;
72771;SDS011;60894;42.544;1.516;2023-07-31T10:20:54;7.75;;;2.80;;
72771;SDS011;60894;42.544;1.516;2023-07-31T10:23:22;6.38;;;2.88;;
72771;SDS011;60894;42.544;1.516;2023-07-31T10:25:50;6.10;;;2.80;;
72771;SDS011;60894;42.544;1.516;2023-07-31T10:28:21;6.72;;;2.80;;
72771;SDS011;60894;42.544;1.516;2023-07-31T10:30:50;10.87;;;3.07;;
72771;SDS011;60894;42.544;1.516;2023-07-31T10:33:18;7.90;;;3.13;;
72771;SDS011;60894;42.544;1.516;2023-07-31T10:35:46;10.55;;;3.60;;
72771;SDS011;60894;42.544;1.516;2023-07-31T10:38:14;8.70;;;3.75;;
72771;SDS011;60894;42.544;1.516;2023-07-31T10:40:41;9.43;;;3.78;;
72771;SDS011;60894;42.544;1.516;2023-07-31T10:43:10;8.97;;;3.60;;
72771;SDS011;60894;42.544;1.516;2023-07-31T10:45:52;8.18;;;3.72;;
72771;SDS011;60894;42.544;1.516;2023-07-31T10:48:20;7.07;;;3.55;;
72771;SDS011;60894;42.544;1.516;2023-07-31T10:50:48;6.65;;;3.30;;
72771;SDS011;60894;42.544;1.516;2023-07-31T10:53:22;6.15;;;3.10;;
72771;SDS011;60894;42.544;1.516;2023-07-31T10:55:49;6.43;;;3.47;;
72771;SDS011;60894;42.544;1.516;2023-07-31T10:58:18;5.93;;;3.30;;
72771;SDS011;60894;42.544;1.516;2023-07-31T11:00:48;6.75;;;3.63;;
72771;SDS011;60894;42.544;1.516;2023-07-31T11:03:16;7.43;;;3.65;;
72771;SDS011;60894;42.544;1.516;2023-07-31T11:05:48;7.22;;;3.80;;
72771;SDS011;60894;42.544;1.516;2023-07-31T11:08:20;6.33;;;3.40;;
72771;SDS011;60894;42.544;1.516;2023-07-31T11:10:50;8.63;;;3.30;;
72771;SDS011;60894;42.544;1.516;2023-07-31T11:13:30;7.15;;;3.47;;
72771;SDS011;60894;42.544;1.516;2023-07-31T11:16:00;7.38;;;3.85;;
72771;SDS011;60894;42.544;1.516;2023-07-31T11:18:27;7.57;;;3.30;;
72771;SDS011;60894;42.544;1.516;2023-07-31T11:20:54;7.80;;;3.50;;
72771;SDS011;60894;42.544;1.516;2023-07-31T11:23:22;8.70;;;3.78;;
72771;SDS011;60894;42.544;1.516;2023-07-31T11:25:49;8.13;;;3.97;;
72771;SDS011;60894;42.544;1.516;2023-07-31T11:28:17;7.03;;;3.90;;
72771;SDS011;60894;42.544;1.516;2023-07-31T11:30:46;7.40;;;3.65;;
72771;SDS011;60894;42.544;1.516;2023-07-31T11:33:14;7.57;;;3.90;;
72771;SDS011;60894;42.544;1.516;2023-07-31T11:35:42;8.25;;;4.10;;
72771;SDS011;60894;42.544;1.516;2023-07-31T11:38:10;7.93;;;4.03;;
72771;SDS011;60894;42.544;1.516;2023-07-31T11:40:40;7.05;;;4.18;;
72771;SDS011;60894;42.544;1.516;2023-07-31T11:43:08;8.57;;;4.03;;
72771;SDS011;60894;42.544;1.516;2023-07-31T11:45:36;8.43;;;3.97;;
72771;SDS011;60894;42.544;1.516;2023-07-31T11:48:04;9.60;;;4.28;;
72771;SDS011;60894;42.544;1.516;2023-07-31T11:50:34;7.38;;;3.90;;
72771;SDS011;60894;42.544;1.516;2023-07-31T11:53:03;8.20;;;4.00;;
72771;SDS011;60894;42.544;1.516;2023-07-31T11:55:34;7.35;;;3.88;;
72771;SDS011;60894;42.544;1.516;2023-07-31T11:58:02;7.20;;;3.83;;
72771;SDS011;60894;42.544;1.516;2023-07-31T12:00:29;7.18;;;4.00;;
72771;SDS011;60894;42.544;1.516;2023-07-31T12:02:56;6.97;;;4.15;;
72771;SDS011;60894;42.544;1.516;2023-07-31T12:05:24;7.82;;;4.00;;
72771;SDS011;60894;42.544;1.516;2023-07-31T12:07:52;9.85;;;4.00;;
72771;SDS011;60894;42.544;1.516;2023-07-31T12:10:27;8.17;;;4.10;;
72771;SDS011;60894;42.544;1.516;2023-07-31T12:12:59;9.25;;;4.20;;
72771;SDS011;60894;42.544;1.516;2023-07-31T12:15:33;8.35;;;3.90;;
72771;SDS011;60894;42.544;1.516;2023-07-31T12:18:03;8.13;;;3.80;;
72771;SDS011;60894;42.544;1.516;2023-07-31T12:20:31;8.68;;;4.03;;
72771;SDS011;60894;42.544;1.516;2023-07-31T12:23:01;8.60;;;4.33;;
72771;SDS011;60894;42.544;1.516;2023-07-31T12:25:30;7.05;;;3.80;;
72771;SDS011;60894;42.544;1.516;2023-07-31T12:27:57;7.57;;;3.90;;
72771;SDS011;60894;42.544;1.516;2023-07-31T12:30:31;8.68;;;4.20;;
72771;SDS011;60894;42.544;1.516;2023-07-31T12:33:02;7.70;;;3.90;;
72771;SDS011;60894;42.544;1.516;2023-07-31T12:35:34;7.10;;;3.93;;
72771;SDS011;60894;42.544;1.516;2023-07-31T12:38:03;9.80;;;4.40;;
72771;SDS011;60894;42.544;1.516;2023-07-31T12:40:30;9.10;;;4.25;;
72771;SDS011;60894;42.544;1.516;2023-07-31T12:42:58;10.02;;;4.18;;
72771;SDS011;60894;42.544;1.516;2023-07-31T12:45:29;7.93;;;4.10;;
72771;SDS011;60894;42.544;1.516;2023-07-31T12:47:56;8.40;;;4.37;;
72771;SDS011;60894;42.544;1.516;2023-07-31T12:50:23;9.07;;;4.22;;
72771;SDS011;60894;42.544;1.516;2023-07-31T12:52:50;10.35;;;4.35;;
72771;SDS011;60894;42.544;1.516;2023-07-31T12:55:19;7.90;;;4.00;;
72771;SDS011;60894;42.544;1.516;2023-07-31T12:57:46;10.30;;;4.43;;
72771;SDS011;60894;42.544;1.516;2023-07-31T13:00:13;8.13;;;4.30;;
72771;SDS011;60894;42.544;1.516;2023-07-31T13:02:41;9.10;;;4.50;;
72771;SDS011;60894;42.544;1.516;2023-07-31T13:05:11;8.20;;;4.20;;
72771;SDS011;60894;42.544;1.516;2023-07-31T13:07:38;8.18;;;4.30;;
72771;SDS011;60894;42.544;1.516;2023-07-31T13:10:06;9.23;;;4.40;;
72771;SDS011;60894;42.544;1.516;2023-07-31T13:12:35;9.87;;;4.60;;
72771;SDS011;60894;42.544;1.516;2023-07-31T13:15:02;9.00;;;4.20;;
72771;SDS011;60894;42.544;1.516;2023-07-31T13:17:29;7.95;;;4.20;;
72771;SDS011;60894;42.544;1.516;2023-07-31T13:19:57;8.07;;;4.20;;
72771;SDS011;60894;42.544;1.516;2023-07-31T13:22:24;7.53;;;4.00;;
72771;SDS011;60894;42.544;1.516;2023-07-31T13:24:53;8.60;;;4.17;;
72771;SDS011;60894;42.544;1.516;2023-07-31T13:27:20;8.30;;;4.25;;
72771;SDS011;60894;42.544;1.516;2023-07-31T13:29:48;7.50;;;4.30;;
72771;SDS011;60894;42.544;1.516;2023-07-31T13:32:16;8.68;;;4.20;;
72771;SDS011;60894;42.544;1.516;2023-07-31T13:34:43;7.45;;;4.10;;
72771;SDS011;60894;42.544;1.516;2023-07-31T13:37:10;7.03;;;3.80;;
72771;SDS011;60894;42.544;1.516;2023-07-31T13:39:38;7.38;;;4.03;;
72771;SDS011;60894;42.544;1.516;2023-07-31T13:42:05;9.32;;;4.10;;
72771;SDS011;60894;42.544;1.516;2023-07-31T13:44:33;7.00;;;3.95;;
72771;SDS011;60894;42.544;1.516;2023-07-31T13:47:02;7.10;;;3.92;;
72771;SDS011;60894;42.544;1.516;2023-07-31T13:49:29;7.30;;;3.80;;
72771;SDS011;60894;42.544;1.516;2023-07-31T13:51:57;7.90;;;4.07;;
72771;SDS011;60894;42.544;1.516;2023-07-31T13:54:24;7.78;;;4.20;;
72771;SDS011;60894;42.544;1.516;2023-07-31T13:56:52;7.68;;;4.00;;
72771;SDS011;60894;42.544;1.516;2023-07-31T13:59:19;8.27;;;4.10;;
72771;SDS011;60894;42.544;1.516;2023-07-31T14:01:46;7.53;;;3.90;;
72771;SDS011;60894;42.544;1.516;2023-07-31T14:04:15;8.10;;;3.90;;
72771;SDS011;60894;42.544;1.516;2023-07-31T14:06:42;7.65;;;4.20;;
72771;SDS011;60894;42.544;1.516;2023-07-31T14:09:09;9.40;;;4.25;;
72771;SDS011;60894;42.544;1.516;2023-07-31T14:11:36;8.98;;;3.80;;
72771;SDS011;60894;42.544;1.516;2023-07-31T14:14:04;8.10;;;4.00;;
72771;SDS011;60894;42.544;1.516;2023-07-31T14:16:31;7.88;;;4.10;;
72771;SDS011;60894;42.544;1.516;2023-07-31T14:18:58;11.05;;;4.07;;
72771;SDS011;60894;42.544;1.516;2023-07-31T14:21:26;10.23;;;3.85;;
72771;SDS011;60894;42.544;1.516;2023-07-31T14:23:53;8.68;;;3.70;;
72771;SDS011;60894;42.544;1.516;2023-07-31T14:26:20;8.80;;;4.30;;
72771;SDS011;60894;42.544;1.516;2023-07-31T14:28:47;8.60;;;4.63;;
72771;SDS011;60894;42.544;1.516;2023-07-31T14:31:14;8.77;;;4.20;;
72771;SDS011;60894;42.544;1.516;2023-07-31T14:33:42;8.45;;;4.03;;
72771;SDS011;60894;42.544;1.516;2023-07-31T14:36:08;9.05;;;3.90;;
72771;SDS011;60894;42.544;1.516;2023-07-31T14:38:37;8.30;;;4.07;;
72771;SDS011;60894;42.544;1.516;2023-07-31T14:41:04;7.57;;;3.73;;
72771;SDS011;60894;42.544;1.516;2023-07-31T14:43:31;8.48;;;3.95;;
72771;SDS011;60894;42.544;1.516;2023-07-31T14:45:58;8.50;;;3.95;;
72771;SDS011;60894;42.544;1.516;2023-07-31T14:48:25;8.65;;;4.22;;
72771;SDS011;60894;42.544;1.516;2023-07-31T14:50:52;7.97;;;3.88;;